Time;durP1;ratioP1;P1;durP2;ratioP2;P2;SDS_P1;SDS_P2;PMS_P1;PMS_P2;Temp;Humidity;BMP_temperature;BMP_pressure;BME280_temperature;BME280_humidity;BME280_pressure;Samples;Min_cycle;Max_cycle;Signal;HPM_P1;HPM_P2
2021/11/21 00:00:54;;;;;;;;;;;7.10;70.80;;;;;;5077742;27;88332;-58
2021/11/21 00:03:20;;;;;;;;;;;7.00;70.80;;;;;;5077604;27;87260;-58
2021/11/21 00:05:45;;;;;;;;;;;7.00;70.90;;;;;;5076848;27;88006;-58
2021/11/21 00:08:12;;;;;;;;;;;7.00;70.70;;;;;;5076674;27;87200;-58
2021/11/21 00:10:38;;;;;;;;;;;7.00;70.90;;;;;;5076114;27;89102;-58
2021/11/21 00:13:04;;;;;;;;;;;7.00;71.00;;;;;;5077054;27;88178;-57
2021/11/21 00:15:29;;;;;;;;;;;7.00;71.00;;;;;;5078135;27;87178;-58
2021/11/21 00:17:55;;;;;;;;;;;6.90;70.90;;;;;;5077806;27;88670;-57
2021/11/21 00:20:20;;;;;;;;;;;6.90;70.90;;;;;;5080270;27;89397;-58
2021/11/21 00:22:46;;;;;;;;;;;6.90;70.80;;;;;;5080981;27;87249;-58
2021/11/21 00:25:12;;;;;;;;;;;6.90;70.80;;;;;;5080336;27;88195;-58
2021/11/21 00:27:38;;;;;;;;;;;7.00;70.70;;;;;;5081060;27;86391;-57
2021/11/21 00:30:04;;;;;;;;;;;6.90;70.80;;;;;;5080820;27;87889;-58
2021/11/21 00:32:29;;;;;;;;;;;6.90;70.80;;;;;;5080738;27;88698;-57
2021/11/21 00:34:55;;;;;;;;;;;6.90;71.40;;;;;;5079238;27;88033;-58
2021/11/21 00:37:21;;;;;;;;;;;6.90;70.90;;;;;;5080039;27;89181;-58
2021/11/21 00:39:46;;;;;;;;;;;6.90;70.80;;;;;;5079468;27;88253;-57
2021/11/21 00:42:15;;;;;;;;;;;6.90;70.80;;;;;;5082768;27;87186;-58
2021/11/21 00:44:41;;;;;;;;;;;6.90;70.60;;;;;;5081002;27;88298;-58
2021/11/21 00:47:07;;;;;;;;;;;6.80;70.90;;;;;;5080080;27;87137;-57
2021/11/21 00:49:32;;;;;;;;;;;6.80;70.90;;;;;;5080317;27;87179;-58
2021/11/21 00:51:59;;;;;;;;;;;6.70;70.90;;;;;;5079846;27;86614;-58
2021/11/21 00:57:08;;;;;;;;;;;6.80;70.80;;;;;;5079766;27;88175;-57
2021/11/21 00:59:34;;;;;;;;;;;6.70;70.80;;;;;;5080582;27;89573;-58
2021/11/21 01:02:02;;;;;;;;;;;6.70;70.70;;;;;;5080818;27;88832;-57
2021/11/21 01:04:27;;;;;;;;;;;6.80;70.80;;;;;;5085386;27;89070;-58
2021/11/21 01:06:53;;;;;;;;;;;6.70;70.70;;;;;;5082079;27;87214;-58
2021/11/21 01:09:23;;;;;;;;;;;6.70;70.70;;;;;;5081839;27;87221;-58
2021/11/21 01:11:49;;;;;;;;;;;6.80;70.50;;;;;;5081507;27;89558;-57
2021/11/21 01:14:15;;;;;;;;;;;6.80;70.50;;;;;;5080512;27;87167;-58
2021/11/21 01:16:40;;;;;;;;;;;6.70;70.40;;;;;;5080288;27;86454;-58
2021/11/21 01:19:06;;;;;;;;;;;6.70;70.40;;;;;;5078529;27;88191;-58
2021/11/21 01:21:31;;;;;;;;;;;6.70;70.60;;;;;;5080438;27;88937;-58
2021/11/21 01:23:59;;;;;;;;;;;6.70;70.70;;;;;;5082756;27;89043;-58
2021/11/21 01:26:25;;;;;;;;;;;6.70;70.70;;;;;;5083527;27;87678;-58
2021/11/21 01:28:50;;;;;;;;;;;6.60;70.70;;;;;;5079889;27;88935;-58
2021/11/21 01:31:16;;;;;;;;;;;6.60;70.70;;;;;;5078676;27;88092;-57
2021/11/21 01:33:42;;;;;;;;;;;6.60;70.70;;;;;;5060623;27;87285;-58
2021/11/21 01:36:07;;;;;;;;;;;6.60;70.50;;;;;;5081329;27;89087;-57
2021/11/21 01:38:33;;;;;;;;;;;6.60;70.70;;;;;;5081746;27;89945;-57
2021/11/21 01:40:59;;;;;;;;;;;6.60;70.70;;;;;;5083341;27;86505;-58
2021/11/21 01:43:24;;;;;;;;;;;6.60;70.70;;;;;;5082337;27;87087;-58
2021/11/21 01:45:50;;;;;;;;;;;6.60;70.70;;;;;;5084001;27;87921;-58
2021/11/21 01:48:16;;;;;;;;;;;6.60;70.70;;;;;;5079675;27;88815;-58
2021/11/21 01:50:42;;;;;;;;;;;6.60;70.70;;;;;;5080363;27;88985;-57
2021/11/21 01:53:08;;;;;;;;;;;6.50;70.70;;;;;;5080775;27;87171;-58
2021/11/21 01:55:34;;;;;;;;;;;6.60;70.60;;;;;;5081629;27;87661;-57
2021/11/21 01:58:00;;;;;;;;;;;6.50;70.60;;;;;;5081301;27;87590;-58
2021/11/21 02:00:28;;;;;;;;;;;6.50;70.50;;;;;;5081764;27;87136;-58
2021/11/21 02:02:54;;;;;;;;;;;6.50;70.50;;;;;;5078703;27;88766;-57
2021/11/21 02:05:19;;;;;;;;;;;6.50;70.60;;;;;;5079267;27;87918;-58
2021/11/21 02:07:47;;;;;;;;;;;6.50;70.50;;;;;;5081440;27;87149;-58
2021/11/21 02:10:14;;;;;;;;;;;6.50;70.30;;;;;;5082416;27;88101;-58
2021/11/21 02:12:40;;;;;;;;;;;6.50;70.40;;;;;;5081925;27;88092;-58
2021/11/21 02:15:14;;;;;;;;;;;6.40;70.70;;;;;;5081609;27;89642;-57
2021/11/21 02:17:39;;;;;;;;;;;6.40;70.70;;;;;;5078655;27;88129;-58
2021/11/21 02:20:05;;;;;;;;;;;6.50;70.60;;;;;;5079287;27;87155;-58
2021/11/21 02:22:31;;;;;;;;;;;6.40;70.40;;;;;;5079038;27;89765;-57
2021/11/21 02:24:57;;;;;;;;;;;6.40;70.50;;;;;;5079175;27;88261;-58
2021/11/21 02:27:25;;;;;;;;;;;6.50;70.30;;;;;;5079020;27;87167;-58
2021/11/21 02:29:51;;;;;;;;;;;6.40;70.50;;;;;;5085432;27;87123;-57
2021/11/21 02:32:17;;;;;;;;;;;6.40;70.60;;;;;;5081207;27;88639;-58
2021/11/21 02:34:43;;;;;;;;;;;6.40;70.60;;;;;;5082714;27;87196;-57
2021/11/21 02:37:09;;;;;;;;;;;6.40;70.40;;;;;;5081920;27;88445;-58
2021/11/21 02:39:36;;;;;;;;;;;6.40;70.40;;;;;;5082025;27;88419;-58
2021/11/21 02:42:01;;;;;;;;;;;6.40;70.30;;;;;;5082110;27;87197;-57
2021/11/21 02:44:29;;;;;;;;;;;6.40;70.50;;;;;;5081184;27;88114;-58
2021/11/21 02:46:55;;;;;;;;;;;6.30;70.40;;;;;;5080420;27;87147;-58
2021/11/21 02:49:20;;;;;;;;;;;6.30;70.50;;;;;;5079366;27;89064;-57
2021/11/21 02:51:46;;;;;;;;;;;6.40;70.30;;;;;;5081707;27;89084;-57
2021/11/21 02:54:12;;;;;;;;;;;6.30;70.30;;;;;;5080869;27;87247;-58
2021/11/21 02:56:38;;;;;;;;;;;6.30;70.40;;;;;;5080046;27;89750;-58
2021/11/21 02:59:04;;;;;;;;;;;6.20;70.50;;;;;;5081096;27;87263;-58
2021/11/21 03:01:29;;;;;;;;;;;6.20;70.50;;;;;;5080016;27;88091;-58
2021/11/21 03:03:55;;;;;;;;;;;6.20;70.90;;;;;;5080512;27;87219;-57
2021/11/21 03:06:22;;;;;;;;;;;6.10;70.70;;;;;;5082045;27;87126;-57
2021/11/21 03:08:48;;;;;;;;;;;6.20;70.80;;;;;;5079878;27;89061;-57
2021/11/21 03:11:22;;;;;;;;;;;6.20;70.40;;;;;;5079382;27;87776;-57
2021/11/21 03:13:48;;;;;;;;;;;6.20;70.50;;;;;;5083964;27;87177;-58
2021/11/21 03:16:14;;;;;;;;;;;6.20;70.40;;;;;;5081606;27;88257;-58
2021/11/21 03:18:39;;;;;;;;;;;6.20;70.60;;;;;;5081358;27;86473;-57
2021/11/21 03:21:05;;;;;;;;;;;6.20;70.50;;;;;;5081333;27;87929;-57
2021/11/21 03:23:30;;;;;;;;;;;6.20;70.20;;;;;;5080310;27;88669;-58
2021/11/21 03:25:56;;;;;;;;;;;6.20;70.30;;;;;;5076767;27;88979;-58
2021/11/21 03:28:21;;;;;;;;;;;6.20;70.10;;;;;;5077602;27;88561;-58
2021/11/21 03:30:47;;;;;;;;;;;6.10;70.30;;;;;;5076614;27;88009;-57
2021/11/21 03:33:12;;;;;;;;;;;6.10;70.30;;;;;;5077759;27;87170;-58
2021/11/21 03:35:38;;;;;;;;;;;6.20;70.10;;;;;;5080770;27;87561;-58
2021/11/21 03:38:04;;;;;;;;;;;6.20;70.10;;;;;;5078718;27;87202;-58
2021/11/21 03:40:29;;;;;;;;;;;6.10;70.20;;;;;;5079311;27;87176;-57
2021/11/21 03:42:55;;;;;;;;;;;6.10;70.30;;;;;;5078721;27;87374;-58
2021/11/21 03:45:21;;;;;;;;;;;6.10;70.20;;;;;;5078585;27;87233;-57
2021/11/21 03:47:47;;;;;;;;;;;6.10;70.20;;;;;;5078932;27;88829;-58
2021/11/21 03:50:13;;;;;;;;;;;6.00;70.40;;;;;;5078405;27;89559;-58
2021/11/21 03:52:40;;;;;;;;;;;6.00;70.70;;;;;;5078443;27;87141;-57
2021/11/21 03:55:06;;;;;;;;;;;5.90;70.60;;;;;;5079669;27;88411;-57
2021/11/21 03:57:31;;;;;;;;;;;5.90;70.60;;;;;;5084064;27;88835;-57
2021/11/21 03:59:57;;;;;;;;;;;5.90;70.60;;;;;;5082952;27;88088;-57
2021/11/21 04:02:22;;;;;;;;;;;5.90;70.60;;;;;;5080924;27;87906;-57
2021/11/21 04:04:48;;;;;;;;;;;5.90;70.80;;;;;;5080430;27;87198;-58
2021/11/21 04:07:13;;;;;;;;;;;5.90;70.80;;;;;;5082299;27;88754;-58
2021/11/21 04:09:40;;;;;;;;;;;5.90;70.90;;;;;;5084519;27;88726;-58
2021/11/21 04:12:05;;;;;;;;;;;5.80;70.70;;;;;;5083631;27;87192;-58
2021/11/21 04:14:31;;;;;;;;;;;5.80;70.90;;;;;;5081772;27;88072;-58
2021/11/21 04:16:57;;;;;;;;;;;5.90;70.70;;;;;;5084437;27;87640;-57
2021/11/21 04:19:22;;;;;;;;;;;5.90;70.50;;;;;;5080941;27;89236;-58
2021/11/21 04:21:48;;;;;;;;;;;5.80;70.60;;;;;;5081420;27;88261;-58
2021/11/21 04:24:14;;;;;;;;;;;5.80;70.70;;;;;;5083145;27;87202;-58
2021/11/21 04:26:41;;;;;;;;;;;5.80;70.80;;;;;;5083456;27;89700;-58
2021/11/21 04:29:06;;;;;;;;;;;5.90;70.50;;;;;;5081678;27;89815;-58
2021/11/21 04:31:32;;;;;;;;;;;5.80;70.60;;;;;;5081473;27;86440;-57
2021/11/21 04:33:58;;;;;;;;;;;5.80;70.70;;;;;;5081717;27;88451;-58
2021/11/21 04:36:23;;;;;;;;;;;5.80;70.60;;;;;;5082594;27;88101;-58
2021/11/21 04:38:49;;;;;;;;;;;5.70;70.70;;;;;;5086596;27;88171;-59
2021/11/21 04:41:14;;;;;;;;;;;5.70;70.90;;;;;;5081927;27;88689;-59
2021/11/21 04:43:40;;;;;;;;;;;5.70;70.90;;;;;;5082835;27;87856;-59
2021/11/21 04:46:05;;;;;;;;;;;5.70;70.70;;;;;;5082920;27;88841;-58
2021/11/21 04:48:31;;;;;;;;;;;5.70;70.80;;;;;;5079158;27;89972;-58
2021/11/21 04:50:57;;;;;;;;;;;5.70;71.00;;;;;;5080206;27;87186;-59
2021/11/21 04:53:22;;;;;;;;;;;5.70;71.00;;;;;;5081177;27;88024;-59
2021/11/21 04:55:48;;;;;;;;;;;5.70;70.80;;;;;;5080732;27;87492;-59
2021/11/21 04:58:14;;;;;;;;;;;5.70;71.00;;;;;;5080045;27;87189;-58
2021/11/21 05:00:40;;;;;;;;;;;5.60;71.00;;;;;;5083464;27;88779;-58
2021/11/21 05:03:05;;;;;;;;;;;5.60;70.90;;;;;;5078746;27;88138;-59
2021/11/21 05:05:31;;;;;;;;;;;5.70;70.70;;;;;;5080582;27;90073;-59
2021/11/21 05:07:57;;;;;;;;;;;5.70;70.50;;;;;;5081394;27;87776;-58
2021/11/21 05:10:23;;;;;;;;;;;5.70;70.60;;;;;;5083101;27;87255;-59
2021/11/21 05:12:49;;;;;;;;;;;5.60;70.90;;;;;;5083016;27;88985;-59
2021/11/21 05:15:17;;;;;;;;;;;5.50;71.00;;;;;;5082367;27;87567;-59
2021/11/21 05:17:45;;;;;;;;;;;5.60;71.20;;;;;;5080757;27;87139;-58
2021/11/21 05:20:11;;;;;;;;;;;5.60;71.10;;;;;;5079415;27;88903;-58
2021/11/21 05:22:37;;;;;;;;;;;5.60;71.10;;;;;;5082335;27;87940;-58
2021/11/21 05:25:03;;;;;;;;;;;5.50;71.40;;;;;;5080827;27;87163;-59
2021/11/21 05:27:28;;;;;;;;;;;5.50;71.30;;;;;;5080583;27;89048;-59
2021/11/21 05:29:54;;;;;;;;;;;5.50;71.10;;;;;;5082780;27;87267;-58
2021/11/21 05:32:20;;;;;;;;;;;5.50;71.30;;;;;;5082297;27;88955;-58
2021/11/21 05:34:46;;;;;;;;;;;5.50;70.90;;;;;;5079975;27;89098;-59
2021/11/21 05:37:13;;;;;;;;;;;5.50;71.10;;;;;;5078525;27;87149;-58
2021/11/21 05:39:39;;;;;;;;;;;5.40;71.10;;;;;;5083505;27;88906;-58
2021/11/21 05:42:05;;;;;;;;;;;5.50;71.10;;;;;;5083195;27;88545;-58
2021/11/21 05:44:30;;;;;;;;;;;5.40;71.40;;;;;;5085356;27;86516;-58
2021/11/21 05:46:56;;;;;;;;;;;5.40;71.60;;;;;;5078269;27;88822;-58
2021/11/21 05:49:21;;;;;;;;;;;5.30;71.60;;;;;;5079740;27;87142;-58
2021/11/21 05:51:47;;;;;;;;;;;5.40;71.40;;;;;;5080417;27;88166;-58
2021/11/21 05:54:12;;;;;;;;;;;5.40;71.40;;;;;;5081937;27;88326;-59
2021/11/21 05:56:38;;;;;;;;;;;5.40;71.50;;;;;;5082885;27;87222;-59
2021/11/21 05:59:03;;;;;;;;;;;5.30;71.60;;;;;;5083104;27;89302;-58
2021/11/21 06:01:29;;;;;;;;;;;5.30;71.40;;;;;;5079693;27;88819;-59
2021/11/21 06:03:54;;;;;;;;;;;5.30;71.40;;;;;;5081849;27;87170;-59
2021/11/21 06:06:21;;;;;;;;;;;5.30;71.50;;;;;;5079649;27;88527;-58
2021/11/21 06:08:46;;;;;;;;;;;5.30;71.30;;;;;;5080594;27;86393;-59
2021/11/21 06:11:12;;;;;;;;;;;5.30;71.60;;;;;;5081238;27;87683;-58
2021/11/21 06:13:38;;;;;;;;;;;5.30;71.70;;;;;;5081713;27;88182;-59
2021/11/21 06:16:03;;;;;;;;;;;5.20;71.70;;;;;;5081557;27;88344;-59
2021/11/21 06:18:29;;;;;;;;;;;5.20;71.70;;;;;;5078810;27;88611;-58
2021/11/21 06:20:54;;;;;;;;;;;5.20;71.70;;;;;;5078224;27;87202;-59
2021/11/21 06:23:20;;;;;;;;;;;5.30;71.70;;;;;;5078109;27;87138;-58
2021/11/21 06:25:46;;;;;;;;;;;5.20;71.60;;;;;;5081678;27;87726;-56
2021/11/21 06:28:12;;;;;;;;;;;5.20;71.70;;;;;;5078025;27;87112;-58
2021/11/21 06:30:38;;;;;;;;;;;5.20;71.40;;;;;;5078312;27;88443;-59
2021/11/21 06:33:04;;;;;;;;;;;5.20;71.70;;;;;;5079098;27;88262;-58
2021/11/21 06:35:30;;;;;;;;;;;5.20;71.60;;;;;;5079666;27;87128;-59
2021/11/21 06:37:56;;;;;;;;;;;5.20;71.70;;;;;;5079106;27;88323;-58
2021/11/21 06:40:22;;;;;;;;;;;5.20;71.80;;;;;;5078761;27;89031;-58
2021/11/21 06:42:47;;;;;;;;;;;5.20;71.70;;;;;;5081103;27;87180;-58
2021/11/21 06:45:13;;;;;;;;;;;5.20;71.70;;;;;;5081768;27;87264;-59
2021/11/21 06:47:39;;;;;;;;;;;5.10;71.90;;;;;;5083155;27;87726;-58
2021/11/21 06:50:06;;;;;;;;;;;5.10;71.80;;;;;;5079102;27;87234;-59
2021/11/21 06:52:33;;;;;;;;;;;5.10;71.80;;;;;;5077502;27;87646;-57
2021/11/21 06:54:59;;;;;;;;;;;5.20;71.70;;;;;;5081804;27;87180;-58
2021/11/21 06:57:24;;;;;;;;;;;5.10;71.60;;;;;;5082465;27;87403;-59
2021/11/21 06:59:50;;;;;;;;;;;5.10;71.80;;;;;;5080119;27;88193;-58
2021/11/21 07:02:15;;;;;;;;;;;5.10;71.90;;;;;;5078057;27;88542;-59
2021/11/21 07:04:41;;;;;;;;;;;5.10;72.00;;;;;;5076889;27;88821;-58
2021/11/21 07:07:07;;;;;;;;;;;5.10;72.00;;;;;;5078266;27;87645;-59
2021/11/21 07:09:33;;;;;;;;;;;5.00;72.00;;;;;;5081238;27;87193;-58
2021/11/21 07:11:59;;;;;;;;;;;5.10;71.80;;;;;;5077276;27;87648;-58
2021/11/21 07:14:25;;;;;;;;;;;5.10;71.60;;;;;;5078619;27;87165;-58
2021/11/21 07:16:50;;;;;;;;;;;5.10;71.60;;;;;;5080131;27;87181;-58
2021/11/21 07:19:16;;;;;;;;;;;5.10;71.80;;;;;;5080920;27;88162;-58
2021/11/21 07:21:42;;;;;;;;;;;5.00;71.90;;;;;;5081893;27;86404;-58
2021/11/21 07:24:08;;;;;;;;;;;5.00;72.00;;;;;;5080433;27;87227;-58
2021/11/21 07:26:34;;;;;;;;;;;5.00;71.90;;;;;;5078266;27;88923;-58
2021/11/21 07:29:00;;;;;;;;;;;5.00;71.90;;;;;;5076563;27;88066;-57
2021/11/21 07:31:26;;;;;;;;;;;5.00;72.00;;;;;;5078697;27;89829;-58
2021/11/21 07:33:51;;;;;;;;;;;5.00;71.90;;;;;;5078321;27;87195;-58
2021/11/21 07:36:17;;;;;;;;;;;5.00;72.00;;;;;;5079602;27;87261;-58
2021/11/21 07:38:42;;;;;;;;;;;5.10;71.80;;;;;;5080331;27;88163;-58
2021/11/21 07:41:08;;;;;;;;;;;5.10;71.70;;;;;;5081295;27;88813;-57
2021/11/21 07:43:33;;;;;;;;;;;5.00;71.90;;;;;;5078493;27;87987;-58
2021/11/21 07:46:00;;;;;;;;;;;5.00;72.00;;;;;;5077549;27;87517;-58
2021/11/21 07:48:28;;;;;;;;;;;5.00;72.10;;;;;;5077388;27;87204;-58
2021/11/21 07:50:54;;;;;;;;;;;5.00;72.10;;;;;;5084178;27;89133;-58
2021/11/21 07:53:20;;;;;;;;;;;5.00;72.00;;;;;;5078879;27;88906;-56
2021/11/21 07:55:47;;;;;;;;;;;5.00;72.00;;;;;;5076663;27;89401;-59
2021/11/21 07:58:12;;;;;;;;;;;4.90;72.00;;;;;;5077511;27;88594;-58
2021/11/21 08:00:38;;;;;;;;;;;5.00;71.80;;;;;;5076872;27;87133;-57
2021/11/21 08:03:03;;;;;;;;;;;5.00;71.90;;;;;;5078244;27;87185;-57
2021/11/21 08:05:29;;;;;;;;;;;5.00;72.10;;;;;;5078938;27;89155;-57
2021/11/21 08:07:55;;;;;;;;;;;4.90;72.00;;;;;;5080529;27;87141;-58
2021/11/21 08:10:20;;;;;;;;;;;4.90;72.10;;;;;;5081286;27;88086;-58
2021/11/21 08:12:46;;;;;;;;;;;4.90;72.00;;;;;;5080458;27;88155;-57
2021/11/21 08:15:12;;;;;;;;;;;4.90;71.90;;;;;;5076217;27;89223;-57
2021/11/21 08:17:38;;;;;;;;;;;5.00;72.20;;;;;;5076132;27;89716;-58
2021/11/21 08:20:04;;;;;;;;;;;4.90;71.80;;;;;;5078366;27;87197;-58
2021/11/21 08:22:29;;;;;;;;;;;4.90;72.00;;;;;;5078814;27;89512;-58
2021/11/21 08:24:55;;;;;;;;;;;4.90;72.20;;;;;;5079478;27;90060;-57
2021/11/21 08:27:20;;;;;;;;;;;4.90;72.20;;;;;;5080833;27;88677;-58
2021/11/21 08:29:46;;;;;;;;;;;4.90;72.10;;;;;;5078018;27;88043;-57
2021/11/21 08:32:12;;;;;;;;;;;4.90;72.30;;;;;;5075821;27;89962;-58
2021/11/21 08:34:37;;;;;;;;;;;4.90;72.20;;;;;;5079567;27;88038;-58
2021/11/21 08:37:03;;;;;;;;;;;4.80;72.30;;;;;;5076913;27;89421;-58
2021/11/21 08:39:29;;;;;;;;;;;4.80;72.30;;;;;;5078473;27;87165;-58
2021/11/21 08:41:55;;;;;;;;;;;4.90;72.40;;;;;;5078914;27;88673;-58
2021/11/21 08:44:21;;;;;;;;;;;4.80;72.30;;;;;;5080002;27;88081;-58
2021/11/21 08:46:46;;;;;;;;;;;4.80;72.40;;;;;;5080269;27;88365;-58
2021/11/21 08:49:13;;;;;;;;;;;4.80;72.30;;;;;;5083447;27;88672;-58
2021/11/21 08:51:40;;;;;;;;;;;4.80;72.40;;;;;;5083707;27;88118;-58
2021/11/21 08:54:06;;;;;;;;;;;4.80;72.50;;;;;;5082310;27;87175;-58
2021/11/21 08:56:32;;;;;;;;;;;4.80;72.40;;;;;;5085562;27;87210;-58
2021/11/21 08:58:58;;;;;;;;;;;4.80;72.50;;;;;;5084386;27;86415;-58
2021/11/21 09:01:23;;;;;;;;;;;4.80;72.50;;;;;;5082090;27;88133;-58
2021/11/21 09:03:49;;;;;;;;;;;4.80;72.50;;;;;;5079142;27;87693;-58
2021/11/21 09:06:14;;;;;;;;;;;4.80;72.50;;;;;;5080083;27;88037;-58
2021/11/21 09:08:40;;;;;;;;;;;4.80;72.50;;;;;;5081894;27;87818;-58
2021/11/21 09:11:05;;;;;;;;;;;4.80;72.50;;;;;;5082505;27;88819;-58
2021/11/21 09:13:31;;;;;;;;;;;4.80;72.50;;;;;;5083547;27;88688;-58
2021/11/21 09:15:58;;;;;;;;;;;4.80;72.60;;;;;;5081924;27;87797;-58
2021/11/21 09:18:25;;;;;;;;;;;4.80;72.60;;;;;;5084751;27;89963;-58
2021/11/21 09:20:54;;;;;;;;;;;4.80;72.60;;;;;;5083755;27;89124;-58
2021/11/21 09:23:20;;;;;;;;;;;4.80;72.60;;;;;;5080077;27;87983;-58
2021/11/21 09:25:46;;;;;;;;;;;4.80;72.50;;;;;;5079711;27;87140;-58
2021/11/21 09:28:11;;;;;;;;;;;4.80;72.50;;;;;;5079195;27;87118;-58
2021/11/21 09:30:37;;;;;;;;;;;4.80;72.50;;;;;;5079082;27;89071;-58
2021/11/21 09:33:03;;;;;;;;;;;4.80;72.60;;;;;;5081125;27;87113;-58
2021/11/21 09:35:29;;;;;;;;;;;4.80;72.60;;;;;;5081460;27;87864;-58
2021/11/21 09:37:54;;;;;;;;;;;4.80;72.60;;;;;;5082503;27;88265;-58
2021/11/21 09:40:20;;;;;;;;;;;4.80;72.60;;;;;;5086187;27;88449;-58
2021/11/21 09:42:48;;;;;;;;;;;4.80;72.60;;;;;;5079906;27;89933;-58
2021/11/21 09:45:15;;;;;;;;;;;4.80;72.50;;;;;;5081384;27;87190;-58
2021/11/21 09:47:47;;;;;;;;;;;4.80;72.50;;;;;;5079026;27;86990;-58
2021/11/21 09:50:12;;;;;;;;;;;4.80;72.60;;;;;;5083148;27;88868;-58
2021/11/21 09:52:38;;;;;;;;;;;4.80;72.50;;;;;;5083439;27;87144;-58
2021/11/21 09:55:04;;;;;;;;;;;4.80;72.60;;;;;;5078834;27;89480;-58
2021/11/21 09:57:32;;;;;;;;;;;4.80;72.60;;;;;;5082386;27;88414;-58
2021/11/21 10:00:03;;;;;;;;;;;4.80;72.70;;;;;;5081689;27;87181;-58
2021/11/21 10:02:30;;;;;;;;;;;4.70;72.70;;;;;;5081728;27;88315;-58
2021/11/21 10:05:00;;;;;;;;;;;4.80;72.90;;;;;;5081951;27;87197;-57
2021/11/21 10:07:30;;;;;;;;;;;4.80;72.90;;;;;;5078982;27;89364;-58
2021/11/21 10:09:57;;;;;;;;;;;4.80;72.90;;;;;;5079756;27;88268;-58
2021/11/21 10:12:23;;;;;;;;;;;4.80;72.80;;;;;;5078354;27;86375;-58
2021/11/21 10:14:55;;;;;;;;;;;4.80;72.90;;;;;;5082638;27;87325;-55
2021/11/21 10:17:21;;;;;;;;;;;4.70;72.80;;;;;;5079885;27;88076;-56
2021/11/21 10:20:03;;;;;;;;;;;4.90;74.00;;;;;;5077837;27;88157;-60
2021/11/21 10:23:04;;;;;;;;;;;5.00;74.90;;;;;;5080893;27;88188;-59
2021/11/21 10:25:39;;;;;;;;;;;5.00;75.60;;;;;;5015851;28;87324;-63
2021/11/21 10:28:08;;;;;;;;;;;5.00;75.90;;;;;;5071167;27;87462;-60
2021/11/21 10:30:52;;;;;;;;;;;5.10;76.40;;;;;;5080917;27;87213;-50
2021/11/21 10:33:20;;;;;;;;;;;5.10;76.50;;;;;;5080493;27;87275;-51
2021/11/21 10:35:46;;;;;;;;;;;5.10;77.40;;;;;;5077930;27;87262;-50
2021/11/21 10:38:12;;;;;;;;;;;5.10;77.80;;;;;;5080161;27;87421;-51
2021/11/21 10:40:39;;;;;;;;;;;5.20;78.60;;;;;;5080042;27;87165;-52
2021/11/21 10:43:06;;;;;;;;;;;5.30;77.50;;;;;;5077454;27;87722;-50
2021/11/21 10:45:31;;;;;;;;;;;5.30;77.10;;;;;;5082870;27;90892;-48
2021/11/21 10:47:58;;;;;;;;;;;5.30;80.50;;;;;;5080671;27;88411;-46
2021/11/21 10:50:34;;;;;;;;;;;5.40;80.60;;;;;;5077700;27;90096;-46
2021/11/21 10:53:01;;;;;;;;;;;5.60;80.80;;;;;;5077275;27;87137;-46
2021/11/21 10:55:27;;;;;;;;;;;5.70;81.60;;;;;;5082144;27;87535;-46
2021/11/21 10:57:52;;;;;;;;;;;5.80;81.30;;;;;;5081542;27;87661;-46
2021/11/21 11:00:23;;;;;;;;;;;5.90;81.00;;;;;;5080438;27;87727;-46
2021/11/21 11:02:49;;;;;;;;;;;6.00;80.90;;;;;;5078601;27;88950;-46
2021/11/21 11:05:16;;;;;;;;;;;6.00;80.70;;;;;;5076896;27;88009;-46
2021/11/21 11:07:55;;;;;;;;;;;6.00;80.80;;;;;;5084398;27;87163;-46
2021/11/21 11:10:26;;;;;;;;;;;6.20;80.50;;;;;;5076276;27;90053;-47
2021/11/21 11:12:53;;;;;;;;;;;6.20;80.40;;;;;;5080959;27;88112;-46
2021/11/21 11:15:19;;;;;;;;;;;6.20;80.10;;;;;;5079852;27;87230;-46
2021/11/21 11:17:45;;;;;;;;;;;6.20;80.40;;;;;;5077988;27;87675;-46
2021/11/21 11:20:15;;;;;;;;;;;6.30;80.30;;;;;;5077248;27;87280;-46
2021/11/21 11:22:41;;;;;;;;;;;6.30;79.90;;;;;;5078272;27;87225;-46
2021/11/21 11:25:09;;;;;;;;;;;6.30;80.40;;;;;;5077476;27;89802;-45
2021/11/21 11:27:41;;;;;;;;;;;6.40;80.30;;;;;;5081022;27;86389;-46
2021/11/21 11:30:06;;;;;;;;;;;6.40;79.90;;;;;;5081693;27;88427;-45
2021/11/21 11:32:37;;;;;;;;;;;6.50;79.90;;;;;;5079418;27;87166;-47
2021/11/21 11:35:22;;;;;;;;;;;6.50;79.00;;;;;;5078939;27;88106;-46
2021/11/21 11:37:49;;;;;;;;;;;6.40;78.80;;;;;;5067650;27;89529;-47
2021/11/21 11:40:27;;;;;;;;;;;6.50;78.80;;;;;;5077274;27;87206;-45
2021/11/21 11:42:54;;;;;;;;;;;6.60;79.40;;;;;;5079608;27;87161;-46
2021/11/21 11:45:38;;;;;;;;;;;6.80;78.80;;;;;;5077493;27;87776;-49
2021/11/21 11:48:23;;;;;;;;;;;7.10;78.00;;;;;;5078924;27;87211;-49
2021/11/21 11:50:48;;;;;;;;;;;7.10;78.90;;;;;;5080478;27;87334;-48
2021/11/21 11:53:31;;;;;;;;;;;7.10;78.10;;;;;;5082751;27;87056;-47
2021/11/21 11:56:20;;;;;;;;;;;7.10;77.70;;;;;;5076228;27;87140;-47
2021/11/21 11:58:46;;;;;;;;;;;7.00;77.80;;;;;;5068695;27;89658;-45
2021/11/21 12:01:12;;;;;;;;;;;7.00;77.50;;;;;;5076185;27;88149;-47
2021/11/21 12:03:41;;;;;;;;;;;6.90;77.50;;;;;;5077755;27;88577;-49
2021/11/21 12:06:07;;;;;;;;;;;6.70;77.70;;;;;;5080760;27;88335;-48
2021/11/21 12:08:32;;;;;;;;;;;6.60;77.90;;;;;;5079005;27;87266;-48
2021/11/21 12:10:58;;;;;;;;;;;6.50;78.10;;;;;;5078863;27;88332;-49
2021/11/21 12:13:34;;;;;;;;;;;6.40;77.70;;;;;;5079675;27;88124;-48
2021/11/21 12:16:04;;;;;;;;;;;6.40;77.60;;;;;;5080089;27;88012;-50
2021/11/21 12:18:56;;;;;;;;;;;6.40;78.80;;;;;;5084231;27;87407;-50
2021/11/21 12:21:41;;;;;;;;;;;6.40;78.50;;;;;;5080593;27;87373;-52
2021/11/21 12:24:32;;;;;;;;;;;6.30;78.40;;;;;;5082705;27;87775;-50
2021/11/21 12:26:58;;;;;;;;;;;6.20;78.50;;;;;;5080142;27;90019;-50
2021/11/21 12:29:28;;;;;;;;;;;6.20;78.60;;;;;;5080938;27;87132;-49
2021/11/21 12:31:58;;;;;;;;;;;6.10;78.50;;;;;;5082006;27;87169;-50
2021/11/21 12:34:27;;;;;;;;;;;6.10;78.60;;;;;;5084201;27;89276;-49
2021/11/21 12:37:11;;;;;;;;;;;6.10;78.80;;;;;;5084575;27;87148;-51
2021/11/21 12:39:37;;;;;;;;;;;6.10;78.80;;;;;;5082853;27;88651;-49
2021/11/21 12:42:07;;;;;;;;;;;6.10;78.90;;;;;;5083411;27;88903;-49
2021/11/21 12:44:33;;;;;;;;;;;6.00;78.90;;;;;;5081539;27;87501;-50
2021/11/21 12:47:00;;;;;;;;;;;6.00;78.80;;;;;;5079953;27;88792;-51
2021/11/21 12:49:26;;;;;;;;;;;6.00;79.00;;;;;;5080047;27;87205;-50
2021/11/21 12:52:07;;;;;;;;;;;6.00;78.90;;;;;;5080444;27;88090;-51
2021/11/21 12:54:33;;;;;;;;;;;6.00;79.40;;;;;;5081573;27;87117;-56
2021/11/21 12:56:58;;;;;;;;;;;6.50;81.00;;;;;;5082177;27;87110;-45
2021/11/21 12:59:43;;;;;;;;;;;6.90;80.30;;;;;;5084510;27;87532;-45
2021/11/21 13:02:11;;;;;;;;;;;7.10;80.60;;;;;;5082822;27;87158;-54
2021/11/21 13:04:47;;;;;;;;;;;7.20;79.60;;;;;;5081882;27;87996;-53
2021/11/21 13:07:30;;;;;;;;;;;7.20;79.10;;;;;;5083566;27;87979;-57
2021/11/21 13:10:04;;;;;;;;;;;7.30;78.80;;;;;;5080201;27;86437;-48
2021/11/21 13:12:32;;;;;;;;;;;7.30;78.30;;;;;;5081124;27;87873;-47
2021/11/21 13:15:17;;;;;;;;;;;7.40;77.90;;;;;;5082859;27;88468;-55
2021/11/21 13:17:43;;;;;;;;;;;7.40;77.60;;;;;;5079747;27;88869;-48
2021/11/21 13:20:16;;;;;;;;;;;7.50;77.70;;;;;;5081274;27;88672;-47
2021/11/21 13:22:49;;;;;;;;;;;7.40;76.70;;;;;;5085933;27;87606;-52
2021/11/21 13:25:27;;;;;;;;;;;7.40;76.80;;;;;;5081231;27;89008;-49
2021/11/21 13:27:53;;;;;;;;;;;7.40;76.30;;;;;;5077508;27;89447;-50
2021/11/21 13:30:20;;;;;;;;;;;7.40;76.40;;;;;;5078327;27;88635;-49
2021/11/21 13:32:46;;;;;;;;;;;7.40;76.00;;;;;;5083335;27;88896;-54
2021/11/21 13:35:18;;;;;;;;;;;7.40;75.90;;;;;;5081791;27;87828;-47
2021/11/21 13:37:45;;;;;;;;;;;7.40;75.80;;;;;;5082258;27;88683;-48
2021/11/21 13:40:12;;;;;;;;;;;7.40;75.60;;;;;;5082051;27;87144;-47
2021/11/21 13:42:37;;;;;;;;;;;7.40;75.30;;;;;;5078585;27;90158;-48
2021/11/21 13:45:03;;;;;;;;;;;7.50;74.90;;;;;;5081687;27;87308;-47
2021/11/21 13:47:32;;;;;;;;;;;7.50;74.50;;;;;;5079229;27;90147;-46
2021/11/21 13:49:59;;;;;;;;;;;7.50;74.30;;;;;;5080525;27;87277;-50
2021/11/21 13:52:27;;;;;;;;;;;7.50;74.40;;;;;;5079878;27;88768;-47
2021/11/21 13:54:57;;;;;;;;;;;7.50;75.80;;;;;;5079476;27;89365;-58
2021/11/21 13:57:23;;;;;;;;;;;7.60;75.70;;;;;;5080168;27;87151;-58
2021/11/21 13:59:50;;;;;;;;;;;7.70;75.90;;;;;;5080707;27;86983;-57
2021/11/21 14:02:16;;;;;;;;;;;7.70;75.70;;;;;;5079447;27;87737;-46
2021/11/21 14:04:42;;;;;;;;;;;7.60;75.70;;;;;;5080330;27;87144;-47
2021/11/21 14:07:10;;;;;;;;;;;7.70;76.00;;;;;;5081119;27;88149;-48
2021/11/21 14:09:51;;;;;;;;;;;7.70;76.00;;;;;;5081074;27;87256;-48
2021/11/21 14:12:20;;;;;;;;;;;7.70;76.10;;;;;;5080372;27;87129;-47
2021/11/21 14:15:00;;;;;;;;;;;7.70;76.10;;;;;;5081001;27;87747;-48
2021/11/21 14:17:26;;;;;;;;;;;7.70;76.10;;;;;;5080687;27;87183;-47
2021/11/21 14:19:52;;;;;;;;;;;7.70;76.30;;;;;;5079831;27;88601;-47
2021/11/21 14:22:19;;;;;;;;;;;7.60;76.20;;;;;;5080549;27;87668;-48
2021/11/21 14:24:45;;;;;;;;;;;7.60;76.40;;;;;;5079970;27;86372;-49
2021/11/21 14:27:22;;;;;;;;;;;7.60;76.60;;;;;;5083306;27;87118;-46
2021/11/21 14:29:52;;;;;;;;;;;7.70;76.80;;;;;;5080029;27;87125;-45
2021/11/21 14:32:18;;;;;;;;;;;7.60;77.10;;;;;;5080837;27;88095;-47
2021/11/21 14:34:43;;;;;;;;;;;7.60;77.30;;;;;;5081378;27;87713;-50